sensor_id;sensor_type;location;lat;lon;timestamp;P1;durP1;ratioP1;P2;durP2;ratioP2
80233;SDS011;69712;42.142;24.766;2024-03-22T00:01:52;19.05;;;10.77;;
80233;SDS011;69712;42.142;24.766;2024-03-22T00:04:19;16.13;;;11.20;;
80233;SDS011;69712;42.142;24.766;2024-03-22T00:06:46;19.95;;;11.57;;
80233;SDS011;69712;42.142;24.766;2024-03-22T00:09:13;17.15;;;11.77;;
80233;SDS011;69712;42.142;24.766;2024-03-22T00:11:40;16.95;;;11.65;;
80233;SDS011;69712;42.142;24.766;2024-03-22T00:14:07;16.98;;;10.77;;
80233;SDS011;69712;42.142;24.766;2024-03-22T00:16:34;16.63;;;11.38;;
80233;SDS011;69712;42.142;24.766;2024-03-22T00:18:59;16.40;;;11.02;;
80233;SDS011;69712;42.142;24.766;2024-03-22T00:21:25;15.98;;;11.10;;
80233;SDS011;69712;42.142;24.766;2024-03-22T00:23:51;16.65;;;10.82;;
80233;SDS011;69712;42.142;24.766;2024-03-22T00:26:17;17.88;;;11.00;;
80233;SDS011;69712;42.142;24.766;2024-03-22T00:28:43;18.40;;;11.02;;
80233;SDS011;69712;42.142;24.766;2024-03-22T00:31:09;16.83;;;10.90;;
80233;SDS011;69712;42.142;24.766;2024-03-22T00:33:35;15.95;;;10.77;;
80233;SDS011;69712;42.142;24.766;2024-03-22T00:36:01;18.23;;;10.90;;
80233;SDS011;69712;42.142;24.766;2024-03-22T00:38:27;16.92;;;10.93;;
80233;SDS011;69712;42.142;24.766;2024-03-22T00:40:52;18.15;;;11.10;;
80233;SDS011;69712;42.142;24.766;2024-03-22T00:43:19;19.05;;;11.13;;
80233;SDS011;69712;42.142;24.766;2024-03-22T00:45:45;16.38;;;10.18;;
80233;SDS011;69712;42.142;24.766;2024-03-22T00:48:11;16.83;;;10.82;;
80233;SDS011;69712;42.142;24.766;2024-03-22T00:50:37;16.38;;;10.15;;
80233;SDS011;69712;42.142;24.766;2024-03-22T00:53:02;17.40;;;11.15;;
80233;SDS011;69712;42.142;24.766;2024-03-22T00:55:30;17.33;;;11.35;;
80233;SDS011;69712;42.142;24.766;2024-03-22T00:57:56;17.60;;;11.30;;
80233;SDS011;69712;42.142;24.766;2024-03-22T01:00:22;17.52;;;11.35;;
80233;SDS011;69712;42.142;24.766;2024-03-22T01:02:49;16.70;;;11.35;;
80233;SDS011;69712;42.142;24.766;2024-03-22T01:05:15;21.60;;;11.93;;
80233;SDS011;69712;42.142;24.766;2024-03-22T01:07:41;16.52;;;11.50;;
80233;SDS011;69712;42.142;24.766;2024-03-22T01:10:07;18.85;;;11.50;;
80233;SDS011;69712;42.142;24.766;2024-03-22T01:12:33;17.35;;;11.95;;
80233;SDS011;69712;42.142;24.766;2024-03-22T01:14:59;18.92;;;11.13;;
80233;SDS011;69712;42.142;24.766;2024-03-22T01:17:25;17.27;;;11.98;;
80233;SDS011;69712;42.142;24.766;2024-03-22T01:19:51;18.10;;;13.02;;
80233;SDS011;69712;42.142;24.766;2024-03-22T01:22:17;17.63;;;12.02;;
80233;SDS011;69712;42.142;24.766;2024-03-22T01:24:43;22.10;;;12.73;;
80233;SDS011;69712;42.142;24.766;2024-03-22T01:27:10;17.70;;;12.25;;
80233;SDS011;69712;42.142;24.766;2024-03-22T01:29:36;18.45;;;12.95;;
80233;SDS011;69712;42.142;24.766;2024-03-22T01:32:02;20.20;;;13.45;;
80233;SDS011;69712;42.142;24.766;2024-03-22T01:34:28;17.92;;;12.40;;
80233;SDS011;69712;42.142;24.766;2024-03-22T01:36:54;19.58;;;12.68;;
80233;SDS011;69712;42.142;24.766;2024-03-22T01:39:20;24.00;;;14.18;;
80233;SDS011;69712;42.142;24.766;2024-03-22T01:41:49;19.25;;;13.10;;
80233;SDS011;69712;42.142;24.766;2024-03-22T01:44:17;19.88;;;13.32;;
80233;SDS011;69712;42.142;24.766;2024-03-22T01:46:44;21.55;;;14.00;;
80233;SDS011;69712;42.142;24.766;2024-03-22T01:49:11;20.40;;;13.75;;
80233;SDS011;69712;42.142;24.766;2024-03-22T01:51:41;22.02;;;13.82;;
80233;SDS011;69712;42.142;24.766;2024-03-22T01:54:11;24.95;;;13.35;;
80233;SDS011;69712;42.142;24.766;2024-03-22T01:56:37;19.85;;;13.75;;
80233;SDS011;69712;42.142;24.766;2024-03-22T01:59:06;21.83;;;14.48;;
80233;SDS011;69712;42.142;24.766;2024-03-22T02:01:33;20.63;;;14.18;;
80233;SDS011;69712;42.142;24.766;2024-03-22T02:03:59;19.45;;;14.35;;
80233;SDS011;69712;42.142;24.766;2024-03-22T02:06:25;18.88;;;13.43;;
80233;SDS011;69712;42.142;24.766;2024-03-22T02:08:51;20.67;;;13.65;;
80233;SDS011;69712;42.142;24.766;2024-03-22T02:11:17;21.90;;;13.82;;
80233;SDS011;69712;42.142;24.766;2024-03-22T02:13:43;25.35;;;14.23;;
80233;SDS011;69712;42.142;24.766;2024-03-22T02:16:09;21.13;;;13.50;;
80233;SDS011;69712;42.142;24.766;2024-03-22T02:18:35;23.55;;;14.05;;
80233;SDS011;69712;42.142;24.766;2024-03-22T02:21:01;21.92;;;14.77;;
80233;SDS011;69712;42.142;24.766;2024-03-22T02:23:33;22.92;;;14.65;;
80233;SDS011;69712;42.142;24.766;2024-03-22T02:26:00;19.38;;;13.95;;
80233;SDS011;69712;42.142;24.766;2024-03-22T02:28:27;23.15;;;14.43;;
80233;SDS011;69712;42.142;24.766;2024-03-22T02:30:53;22.08;;;14.70;;
80233;SDS011;69712;42.142;24.766;2024-03-22T02:33:19;20.92;;;15.05;;
80233;SDS011;69712;42.142;24.766;2024-03-22T02:35:48;27.25;;;15.70;;
80233;SDS011;69712;42.142;24.766;2024-03-22T02:38:15;23.27;;;15.88;;
80233;SDS011;69712;42.142;24.766;2024-03-22T02:40:42;23.17;;;16.27;;
80233;SDS011;69712;42.142;24.766;2024-03-22T02:43:08;21.23;;;15.38;;
80233;SDS011;69712;42.142;24.766;2024-03-22T02:45:34;24.13;;;16.60;;
80233;SDS011;69712;42.142;24.766;2024-03-22T02:48:00;22.00;;;16.15;;
80233;SDS011;69712;42.142;24.766;2024-03-22T02:50:26;22.48;;;15.65;;
80233;SDS011;69712;42.142;24.766;2024-03-22T02:52:52;23.05;;;15.27;;
80233;SDS011;69712;42.142;24.766;2024-03-22T02:55:17;19.23;;;14.35;;
80233;SDS011;69712;42.142;24.766;2024-03-22T02:57:43;24.13;;;15.85;;
80233;SDS011;69712;42.142;24.766;2024-03-22T03:00:09;19.95;;;14.48;;
80233;SDS011;69712;42.142;24.766;2024-03-22T03:02:35;20.13;;;14.35;;
80233;SDS011;69712;42.142;24.766;2024-03-22T03:05:01;21.77;;;14.60;;
80233;SDS011;69712;42.142;24.766;2024-03-22T03:07:28;20.20;;;14.60;;
80233;SDS011;69712;42.142;24.766;2024-03-22T03:09:54;31.35;;;15.20;;
80233;SDS011;69712;42.142;24.766;2024-03-22T03:12:21;22.00;;;14.02;;
80233;SDS011;69712;42.142;24.766;2024-03-22T03:14:47;22.08;;;14.88;;
80233;SDS011;69712;42.142;24.766;2024-03-22T03:17:12;20.00;;;14.68;;
80233;SDS011;69712;42.142;24.766;2024-03-22T03:19:38;20.95;;;14.93;;
80233;SDS011;69712;42.142;24.766;2024-03-22T03:22:04;23.45;;;14.73;;
80233;SDS011;69712;42.142;24.766;2024-03-22T03:24:33;22.75;;;15.02;;
80233;SDS011;69712;42.142;24.766;2024-03-22T03:26:59;21.80;;;14.18;;
80233;SDS011;69712;42.142;24.766;2024-03-22T03:29:24;20.50;;;13.73;;
80233;SDS011;69712;42.142;24.766;2024-03-22T03:31:50;23.13;;;14.75;;
80233;SDS011;69712;42.142;24.766;2024-03-22T03:34:16;23.52;;;15.15;;
80233;SDS011;69712;42.142;24.766;2024-03-22T03:36:42;22.45;;;15.05;;
80233;SDS011;69712;42.142;24.766;2024-03-22T03:39:07;21.60;;;14.50;;
80233;SDS011;69712;42.142;24.766;2024-03-22T03:41:33;23.92;;;15.35;;
80233;SDS011;69712;42.142;24.766;2024-03-22T03:43:59;24.42;;;15.30;;
80233;SDS011;69712;42.142;24.766;2024-03-22T03:46:25;23.83;;;15.77;;
80233;SDS011;69712;42.142;24.766;2024-03-22T03:48:50;23.30;;;15.15;;
80233;SDS011;69712;42.142;24.766;2024-03-22T03:51:16;23.95;;;16.13;;
80233;SDS011;69712;42.142;24.766;2024-03-22T03:53:42;23.98;;;16.30;;
80233;SDS011;69712;42.142;24.766;2024-03-22T03:56:08;28.55;;;17.30;;
80233;SDS011;69712;42.142;24.766;2024-03-22T03:58:33;26.48;;;16.58;;
80233;SDS011;69712;42.142;24.766;2024-03-22T04:00:59;27.40;;;17.95;;
80233;SDS011;69712;42.142;24.766;2024-03-22T04:03:31;26.83;;;18.30;;
80233;SDS011;69712;42.142;24.766;2024-03-22T04:05:57;27.42;;;17.45;;
80233;SDS011;69712;42.142;24.766;2024-03-22T04:08:24;27.77;;;17.70;;
80233;SDS011;69712;42.142;24.766;2024-03-22T04:10:55;27.80;;;17.83;;
80233;SDS011;69712;42.142;24.766;2024-03-22T04:13:22;25.98;;;16.13;;
80233;SDS011;69712;42.142;24.766;2024-03-22T04:15:48;28.45;;;17.55;;
80233;SDS011;69712;42.142;24.766;2024-03-22T04:18:14;27.95;;;18.50;;
80233;SDS011;69712;42.142;24.766;2024-03-22T04:20:40;31.05;;;19.58;;
80233;SDS011;69712;42.142;24.766;2024-03-22T04:23:06;31.65;;;20.38;;
80233;SDS011;69712;42.142;24.766;2024-03-22T04:25:31;35.80;;;20.75;;
80233;SDS011;69712;42.142;24.766;2024-03-22T04:27:57;32.25;;;19.92;;
80233;SDS011;69712;42.142;24.766;2024-03-22T04:30:23;30.13;;;19.88;;
80233;SDS011;69712;42.142;24.766;2024-03-22T04:32:49;34.35;;;21.50;;
80233;SDS011;69712;42.142;24.766;2024-03-22T04:35:14;33.08;;;21.02;;
80233;SDS011;69712;42.142;24.766;2024-03-22T04:37:40;31.25;;;19.48;;
80233;SDS011;69712;42.142;24.766;2024-03-22T04:40:06;31.00;;;19.98;;
80233;SDS011;69712;42.142;24.766;2024-03-22T04:42:34;29.23;;;19.38;;
80233;SDS011;69712;42.142;24.766;2024-03-22T04:45:00;29.35;;;18.85;;
80233;SDS011;69712;42.142;24.766;2024-03-22T04:47:26;28.63;;;19.02;;
80233;SDS011;69712;42.142;24.766;2024-03-22T04:49:52;32.25;;;18.30;;
80233;SDS011;69712;42.142;24.766;2024-03-22T04:52:18;27.67;;;17.95;;
80233;SDS011;69712;42.142;24.766;2024-03-22T04:54:43;26.95;;;17.58;;
80233;SDS011;69712;42.142;24.766;2024-03-22T04:57:09;30.17;;;18.00;;
80233;SDS011;69712;42.142;24.766;2024-03-22T04:59:35;26.67;;;17.20;;
80233;SDS011;69712;42.142;24.766;2024-03-22T05:02:01;26.15;;;17.17;;
80233;SDS011;69712;42.142;24.766;2024-03-22T05:04:27;27.13;;;16.40;;
80233;SDS011;69712;42.142;24.766;2024-03-22T05:06:52;27.10;;;16.08;;
80233;SDS011;69712;42.142;24.766;2024-03-22T05:09:18;24.50;;;16.17;;
80233;SDS011;69712;42.142;24.766;2024-03-22T05:11:44;26.70;;;16.15;;
80233;SDS011;69712;42.142;24.766;2024-03-22T05:14:15;24.52;;;16.50;;
80233;SDS011;69712;42.142;24.766;2024-03-22T05:16:40;29.58;;;16.48;;
80233;SDS011;69712;42.142;24.766;2024-03-22T05:19:07;30.75;;;16.08;;
80233;SDS011;69712;42.142;24.766;2024-03-22T05:21:32;21.63;;;16.05;;
80233;SDS011;69712;42.142;24.766;2024-03-22T05:23:59;29.30;;;15.48;;
80233;SDS011;69712;42.142;24.766;2024-03-22T05:26:25;25.63;;;16.35;;
80233;SDS011;69712;42.142;24.766;2024-03-22T05:28:50;26.52;;;14.90;;
80233;SDS011;69712;42.142;24.766;2024-03-22T05:31:17;26.02;;;15.20;;
80233;SDS011;69712;42.142;24.766;2024-03-22T05:33:43;24.27;;;14.90;;
80233;SDS011;69712;42.142;24.766;2024-03-22T05:36:09;26.40;;;15.90;;
80233;SDS011;69712;42.142;24.766;2024-03-22T05:38:34;25.77;;;15.13;;
80233;SDS011;69712;42.142;24.766;2024-03-22T05:41:03;30.40;;;16.35;;
80233;SDS011;69712;42.142;24.766;2024-03-22T05:43:29;28.55;;;15.02;;
80233;SDS011;69712;42.142;24.766;2024-03-22T05:45:55;23.55;;;14.65;;
80233;SDS011;69712;42.142;24.766;2024-03-22T05:48:21;30.33;;;14.55;;
80233;SDS011;69712;42.142;24.766;2024-03-22T05:50:47;28.13;;;15.88;;
80233;SDS011;69712;42.142;24.766;2024-03-22T05:53:12;24.48;;;14.77;;
80233;SDS011;69712;42.142;24.766;2024-03-22T05:55:38;21.90;;;14.40;;
80233;SDS011;69712;42.142;24.766;2024-03-22T06:01:26;70.03;;;31.10;;
80233;SDS011;69712;42.142;24.766;2024-03-22T06:03:52;56.80;;;24.52;;
80233;SDS011;69712;42.142;24.766;2024-03-22T06:06:17;182.30;;;60.55;;
80233;SDS011;69712;42.142;24.766;2024-03-22T06:08:43;23.40;;;15.35;;
80233;SDS011;69712;42.142;24.766;2024-03-22T06:11:10;24.65;;;14.90;;
80233;SDS011;69712;42.142;24.766;2024-03-22T06:13:36;20.90;;;14.45;;
80233;SDS011;69712;42.142;24.766;2024-03-22T06:16:02;26.92;;;14.65;;
80233;SDS011;69712;42.142;24.766;2024-03-22T06:18:28;26.88;;;13.90;;
80233;SDS011;69712;42.142;24.766;2024-03-22T06:20:54;19.75;;;13.38;;
80233;SDS011;69712;42.142;24.766;2024-03-22T06:23:21;25.30;;;15.88;;
80233;SDS011;69712;42.142;24.766;2024-03-22T06:25:53;23.52;;;14.15;;
80233;SDS011;69712;42.142;24.766;2024-03-22T06:28:20;17.83;;;13.23;;
80233;SDS011;69712;42.142;24.766;2024-03-22T06:30:46;20.40;;;13.70;;
80233;SDS011;69712;42.142;24.766;2024-03-22T06:33:11;22.45;;;13.95;;
80233;SDS011;69712;42.142;24.766;2024-03-22T06:35:37;17.58;;;12.70;;
80233;SDS011;69712;42.142;24.766;2024-03-22T06:38:15;20.48;;;12.82;;
80233;SDS011;69712;42.142;24.766;2024-03-22T06:40:42;23.02;;;13.63;;
80233;SDS011;69712;42.142;24.766;2024-03-22T06:43:08;17.67;;;12.55;;
80233;SDS011;69712;42.142;24.766;2024-03-22T06:45:36;16.15;;;12.00;;
80233;SDS011;69712;42.142;24.766;2024-03-22T06:48:04;21.42;;;12.70;;
80233;SDS011;69712;42.142;24.766;2024-03-22T06:50:30;17.58;;;12.20;;
80233;SDS011;69712;42.142;24.766;2024-03-22T06:52:56;18.30;;;12.02;;
80233;SDS011;69712;42.142;24.766;2024-03-22T06:55:21;16.67;;;11.73;;
80233;SDS011;69712;42.142;24.766;2024-03-22T06:57:48;15.90;;;11.02;;
80233;SDS011;69712;42.142;24.766;2024-03-22T07:00:15;18.75;;;10.70;;
80233;SDS011;69712;42.142;24.766;2024-03-22T07:02:41;14.57;;;10.80;;
80233;SDS011;69712;42.142;24.766;2024-03-22T07:05:08;18.67;;;12.55;;
80233;SDS011;69712;42.142;24.766;2024-03-22T07:07:34;15.88;;;10.43;;
80233;SDS011;69712;42.142;24.766;2024-03-22T07:10:01;16.25;;;11.27;;
80233;SDS011;69712;42.142;24.766;2024-03-22T07:12:30;18.27;;;11.13;;
80233;SDS011;69712;42.142;24.766;2024-03-22T07:14:57;15.50;;;11.10;;
80233;SDS011;69712;42.142;24.766;2024-03-22T07:17:24;17.30;;;10.63;;
80233;SDS011;69712;42.142;24.766;2024-03-22T07:19:50;19.75;;;10.88;;
80233;SDS011;69712;42.142;24.766;2024-03-22T07:22:16;17.25;;;11.10;;
80233;SDS011;69712;42.142;24.766;2024-03-22T07:24:43;15.88;;;10.35;;
80233;SDS011;69712;42.142;24.766;2024-03-22T07:27:09;17.25;;;10.75;;
80233;SDS011;69712;42.142;24.766;2024-03-22T07:29:36;14.15;;;10.55;;
80233;SDS011;69712;42.142;24.766;2024-03-22T07:32:01;16.15;;;11.30;;
80233;SDS011;69712;42.142;24.766;2024-03-22T07:34:28;14.88;;;10.90;;
80233;SDS011;69712;42.142;24.766;2024-03-22T07:36:54;16.25;;;11.68;;
80233;SDS011;69712;42.142;24.766;2024-03-22T07:39:20;16.65;;;11.23;;
80233;SDS011;69712;42.142;24.766;2024-03-22T07:41:46;19.33;;;11.55;;
80233;SDS011;69712;42.142;24.766;2024-03-22T07:44:12;17.88;;;10.45;;
80233;SDS011;69712;42.142;24.766;2024-03-22T07:46:37;15.52;;;9.90;;
80233;SDS011;69712;42.142;24.766;2024-03-22T07:49:03;11.13;;;9.27;;
80233;SDS011;69712;42.142;24.766;2024-03-22T07:51:29;14.40;;;9.85;;
80233;SDS011;69712;42.142;24.766;2024-03-22T07:53:55;17.83;;;9.55;;
80233;SDS011;69712;42.142;24.766;2024-03-22T07:56:21;13.02;;;10.20;;
80233;SDS011;69712;42.142;24.766;2024-03-22T07:58:47;20.02;;;15.25;;
80233;SDS011;69712;42.142;24.766;2024-03-22T08:01:13;14.05;;;10.70;;
80233;SDS011;69712;42.142;24.766;2024-03-22T08:03:39;16.38;;;10.50;;
80233;SDS011;69712;42.142;24.766;2024-03-22T08:06:05;12.25;;;9.43;;
80233;SDS011;69712;42.142;24.766;2024-03-22T08:08:31;12.35;;;9.10;;
80233;SDS011;69712;42.142;24.766;2024-03-22T08:10:56;12.40;;;9.68;;
80233;SDS011;69712;42.142;24.766;2024-03-22T08:13:22;13.27;;;9.27;;
80233;SDS011;69712;42.142;24.766;2024-03-22T08:15:48;13.50;;;9.98;;
80233;SDS011;69712;42.142;24.766;2024-03-22T08:18:14;13.65;;;10.23;;
80233;SDS011;69712;42.142;24.766;2024-03-22T08:20:39;12.23;;;10.27;;
80233;SDS011;69712;42.142;24.766;2024-03-22T08:23:05;13.52;;;9.95;;
80233;SDS011;69712;42.142;24.766;2024-03-22T08:25:31;12.00;;;9.85;;
80233;SDS011;69712;42.142;24.766;2024-03-22T08:27:57;14.18;;;9.93;;
80233;SDS011;69712;42.142;24.766;2024-03-22T08:30:24;12.13;;;10.07;;
80233;SDS011;69712;42.142;24.766;2024-03-22T08:32:53;15.52;;;10.35;;
80233;SDS011;69712;42.142;24.766;2024-03-22T08:35:19;16.30;;;9.77;;
80233;SDS011;69712;42.142;24.766;2024-03-22T08:37:45;12.68;;;9.40;;
80233;SDS011;69712;42.142;24.766;2024-03-22T08:40:11;11.85;;;9.32;;
80233;SDS011;69712;42.142;24.766;2024-03-22T08:42:39;12.45;;;8.70;;
80233;SDS011;69712;42.142;24.766;2024-03-22T08:45:05;13.23;;;8.93;;
80233;SDS011;69712;42.142;24.766;2024-03-22T08:47:31;12.38;;;8.80;;
80233;SDS011;69712;42.142;24.766;2024-03-22T08:49:59;14.48;;;9.50;;
80233;SDS011;69712;42.142;24.766;2024-03-22T08:52:25;11.80;;;8.90;;
80233;SDS011;69712;42.142;24.766;2024-03-22T08:54:51;13.90;;;8.98;;
80233;SDS011;69712;42.142;24.766;2024-03-22T08:57:17;15.18;;;9.35;;
80233;SDS011;69712;42.142;24.766;2024-03-22T08:59:44;12.20;;;9.98;;
80233;SDS011;69712;42.142;24.766;2024-03-22T09:02:10;12.75;;;8.57;;
80233;SDS011;69712;42.142;24.766;2024-03-22T09:04:36;14.57;;;9.38;;
80233;SDS011;69712;42.142;24.766;2024-03-22T09:07:03;13.25;;;9.18;;
80233;SDS011;69712;42.142;24.766;2024-03-22T09:09:29;14.20;;;8.90;;
80233;SDS011;69712;42.142;24.766;2024-03-22T09:11:55;12.82;;;9.00;;
80233;SDS011;69712;42.142;24.766;2024-03-22T09:14:20;14.90;;;9.05;;
80233;SDS011;69712;42.142;24.766;2024-03-22T09:16:46;14.80;;;8.13;;
80233;SDS011;69712;42.142;24.766;2024-03-22T09:19:12;13.02;;;8.02;;
80233;SDS011;69712;42.142;24.766;2024-03-22T09:21:38;10.32;;;8.07;;
80233;SDS011;69712;42.142;24.766;2024-03-22T09:24:03;13.65;;;8.23;;
80233;SDS011;69712;42.142;24.766;2024-03-22T09:26:29;11.18;;;6.38;;
80233;SDS011;69712;42.142;24.766;2024-03-22T09:28:57;10.52;;;7.00;;
80233;SDS011;69712;42.142;24.766;2024-03-22T09:31:23;11.23;;;7.00;;
80233;SDS011;69712;42.142;24.766;2024-03-22T09:33:48;14.57;;;6.88;;
80233;SDS011;69712;42.142;24.766;2024-03-22T09:36:14;9.45;;;6.82;;
80233;SDS011;69712;42.142;24.766;2024-03-22T09:38:40;11.57;;;7.90;;
80233;SDS011;69712;42.142;24.766;2024-03-22T09:41:06;10.35;;;7.20;;
80233;SDS011;69712;42.142;24.766;2024-03-22T09:43:32;9.15;;;6.53;;
80233;SDS011;69712;42.142;24.766;2024-03-22T09:46:00;7.95;;;6.22;;
80233;SDS011;69712;42.142;24.766;2024-03-22T09:48:29;10.93;;;6.38;;
80233;SDS011;69712;42.142;24.766;2024-03-22T09:50:57;10.18;;;6.57;;
80233;SDS011;69712;42.142;24.766;2024-03-22T09:53:22;10.57;;;7.38;;
80233;SDS011;69712;42.142;24.766;2024-03-22T09:55:52;7.07;;;5.82;;
80233;SDS011;69712;42.142;24.766;2024-03-22T09:58:22;11.25;;;5.85;;
80233;SDS011;69712;42.142;24.766;2024-03-22T10:00:49;13.98;;;5.93;;
80233;SDS011;69712;42.142;24.766;2024-03-22T10:03:15;7.97;;;5.30;;
80233;SDS011;69712;42.142;24.766;2024-03-22T10:05:41;8.65;;;5.70;;
80233;SDS011;69712;42.142;24.766;2024-03-22T10:08:07;7.40;;;5.15;;
80233;SDS011;69712;42.142;24.766;2024-03-22T10:10:32;6.50;;;4.85;;
80233;SDS011;69712;42.142;24.766;2024-03-22T10:13:02;8.27;;;5.40;;
80233;SDS011;69712;42.142;24.766;2024-03-22T10:15:29;8.35;;;6.00;;
80233;SDS011;69712;42.142;24.766;2024-03-22T10:17:56;10.18;;;6.20;;
80233;SDS011;69712;42.142;24.766;2024-03-22T10:20:22;9.18;;;6.50;;
80233;SDS011;69712;42.142;24.766;2024-03-22T10:22:49;14.18;;;5.93;;
80233;SDS011;69712;42.142;24.766;2024-03-22T10:25:25;9.18;;;6.07;;
80233;SDS011;69712;42.142;24.766;2024-03-22T10:27:54;10.63;;;5.90;;
80233;SDS011;69712;42.142;24.766;2024-03-22T10:30:22;6.72;;;5.22;;
80233;SDS011;69712;42.142;24.766;2024-03-22T10:32:48;10.27;;;5.80;;
80233;SDS011;69712;42.142;24.766;2024-03-22T10:35:14;8.23;;;5.20;;
80233;SDS011;69712;42.142;24.766;2024-03-22T10:37:41;6.97;;;5.72;;
80233;SDS011;69712;42.142;24.766;2024-03-22T10:40:08;10.43;;;5.78;;
80233;SDS011;69712;42.142;24.766;2024-03-22T10:42:35;8.75;;;5.90;;
80233;SDS011;69712;42.142;24.766;2024-03-22T10:45:02;11.43;;;5.28;;
80233;SDS011;69712;42.142;24.766;2024-03-22T10:47:29;9.55;;;5.40;;
80233;SDS011;69712;42.142;24.766;2024-03-22T10:50:17;6.47;;;5.18;;
80233;SDS011;69712;42.142;24.766;2024-03-22T10:55:24;7.00;;;5.20;;
80233;SDS011;69712;42.142;24.766;2024-03-22T10:57:59;7.75;;;5.20;;
80233;SDS011;69712;42.142;24.766;2024-03-22T11:00:28;12.70;;;5.30;;
80233;SDS011;69712;42.142;24.766;2024-03-22T11:02:55;8.90;;;5.82;;
80233;SDS011;69712;42.142;24.766;2024-03-22T11:05:21;9.95;;;5.35;;
80233;SDS011;69712;42.142;24.766;2024-03-22T11:07:48;8.55;;;4.75;;
80233;SDS011;69712;42.142;24.766;2024-03-22T11:10:29;6.80;;;5.07;;
80233;SDS011;69712;42.142;24.766;2024-03-22T11:13:00;5.00;;;4.03;;
80233;SDS011;69712;42.142;24.766;2024-03-22T11:15:30;8.27;;;3.67;;
80233;SDS011;69712;42.142;24.766;2024-03-22T11:17:56;4.22;;;3.45;;
80233;SDS011;69712;42.142;24.766;2024-03-22T11:20:23;8.20;;;4.07;;
80233;SDS011;69712;42.142;24.766;2024-03-22T11:22:49;5.00;;;3.88;;
80233;SDS011;69712;42.142;24.766;2024-03-22T11:25:16;6.70;;;4.30;;
80233;SDS011;69712;42.142;24.766;2024-03-22T11:27:42;5.43;;;3.95;;
80233;SDS011;69712;42.142;24.766;2024-03-22T11:30:08;7.47;;;3.75;;
80233;SDS011;69712;42.142;24.766;2024-03-22T11:32:34;6.60;;;4.15;;
80233;SDS011;69712;42.142;24.766;2024-03-22T11:35:07;8.13;;;4.03;;
80233;SDS011;69712;42.142;24.766;2024-03-22T11:37:37;8.55;;;5.18;;
80233;SDS011;69712;42.142;24.766;2024-03-22T11:40:04;10.25;;;4.65;;
80233;SDS011;69712;42.142;24.766;2024-03-22T11:42:33;5.15;;;3.95;;
80233;SDS011;69712;42.142;24.766;2024-03-22T11:45:00;5.00;;;3.70;;
80233;SDS011;69712;42.142;24.766;2024-03-22T11:47:27;4.28;;;3.42;;
80233;SDS011;69712;42.142;24.766;2024-03-22T11:49:53;7.78;;;3.75;;
80233;SDS011;69712;42.142;24.766;2024-03-22T11:52:24;5.60;;;4.00;;
80233;SDS011;69712;42.142;24.766;2024-03-22T11:54:51;8.93;;;5.85;;
80233;SDS011;69712;42.142;24.766;2024-03-22T11:57:18;6.70;;;3.72;;
80233;SDS011;69712;42.142;24.766;2024-03-22T11:59:45;5.80;;;4.88;;
80233;SDS011;69712;42.142;24.766;2024-03-22T12:02:11;8.13;;;4.30;;
80233;SDS011;69712;42.142;24.766;2024-03-22T12:04:41;5.35;;;3.63;;
80233;SDS011;69712;42.142;24.766;2024-03-22T12:07:11;4.70;;;3.50;;
80233;SDS011;69712;42.142;24.766;2024-03-22T12:09:48;4.50;;;3.60;;
80233;SDS011;69712;42.142;24.766;2024-03-22T12:12:14;5.75;;;3.30;;
80233;SDS011;69712;42.142;24.766;2024-03-22T12:14:40;5.43;;;3.60;;
80233;SDS011;69712;42.142;24.766;2024-03-22T12:17:06;9.68;;;3.60;;
80233;SDS011;69712;42.142;24.766;2024-03-22T12:19:33;4.95;;;3.47;;
80233;SDS011;69712;42.142;24.766;2024-03-22T12:21:59;5.03;;;3.35;;
80233;SDS011;69712;42.142;24.766;2024-03-22T12:24:25;4.35;;;3.40;;
80233;SDS011;69712;42.142;24.766;2024-03-22T12:26:52;4.85;;;3.42;;
80233;SDS011;69712;42.142;24.766;2024-03-22T12:29:19;4.55;;;3.05;;
80233;SDS011;69712;42.142;24.766;2024-03-22T12:31:45;6.03;;;3.10;;
80233;SDS011;69712;42.142;24.766;2024-03-22T12:34:12;7.25;;;3.20;;
80233;SDS011;69712;42.142;24.766;2024-03-22T12:36:37;3.78;;;3.10;;
80233;SDS011;69712;42.142;24.766;2024-03-22T12:39:04;8.57;;;3.40;;
80233;SDS011;69712;42.142;24.766;2024-03-22T12:41:30;3.45;;;3.10;;
80233;SDS011;69712;42.142;24.766;2024-03-22T12:43:56;3.65;;;3.00;;
80233;SDS011;69712;42.142;24.766;2024-03-22T12:46:22;5.88;;;3.60;;
80233;SDS011;69712;42.142;24.766;2024-03-22T12:48:49;3.95;;;3.28;;
80233;SDS011;69712;42.142;24.766;2024-03-22T12:51:14;7.50;;;3.20;;
80233;SDS011;69712;42.142;24.766;2024-03-22T12:53:41;4.78;;;3.30;;
80233;SDS011;69712;42.142;24.766;2024-03-22T12:56:06;4.45;;;3.35;;
80233;SDS011;69712;42.142;24.766;2024-03-22T12:58:33;3.47;;;3.17;;
80233;SDS011;69712;42.142;24.766;2024-03-22T13:00:58;4.22;;;3.50;;
80233;SDS011;69712;42.142;24.766;2024-03-22T13:03:28;4.40;;;3.30;;
80233;SDS011;69712;42.142;24.766;2024-03-22T13:05:54;3.95;;;2.90;;
80233;SDS011;69712;42.142;24.766;2024-03-22T13:08:20;4.63;;;3.28;;
80233;SDS011;69712;42.142;24.766;2024-03-22T13:10:46;5.68;;;3.15;;
80233;SDS011;69712;42.142;24.766;2024-03-22T13:13:13;4.90;;;3.00;;
80233;SDS011;69712;42.142;24.766;2024-03-22T13:15:41;5.93;;;3.30;;
80233;SDS011;69712;42.142;24.766;2024-03-22T13:18:12;4.53;;;3.42;;
80233;SDS011;69712;42.142;24.766;2024-03-22T13:20:38;4.80;;;3.10;;
80233;SDS011;69712;42.142;24.766;2024-03-22T13:23:04;5.82;;;3.30;;
80233;SDS011;69712;42.142;24.766;2024-03-22T13:25:30;6.30;;;3.20;;
80233;SDS011;69712;42.142;24.766;2024-03-22T13:27:56;3.97;;;3.25;;
80233;SDS011;69712;42.142;24.766;2024-03-22T13:30:22;5.03;;;2.88;;
80233;SDS011;69712;42.142;24.766;2024-03-22T13:32:47;4.30;;;2.92;;
80233;SDS011;69712;42.142;24.766;2024-03-22T13:35:13;4.18;;;2.83;;
80233;SDS011;69712;42.142;24.766;2024-03-22T13:37:40;5.18;;;3.10;;
80233;SDS011;69712;42.142;24.766;2024-03-22T13:40:06;4.53;;;3.17;;
80233;SDS011;69712;42.142;24.766;2024-03-22T13:42:33;7.63;;;3.50;;
80233;SDS011;69712;42.142;24.766;2024-03-22T13:44:59;3.67;;;3.03;;
80233;SDS011;69712;42.142;24.766;2024-03-22T13:47:25;3.15;;;2.80;;
80233;SDS011;69712;42.142;24.766;2024-03-22T13:49:53;4.88;;;3.10;;
80233;SDS011;69712;42.142;24.766;2024-03-22T13:52:19;4.85;;;3.88;;
80233;SDS011;69712;42.142;24.766;2024-03-22T13:54:46;11.95;;;3.95;;
80233;SDS011;69712;42.142;24.766;2024-03-22T13:57:12;6.13;;;3.20;;
80233;SDS011;69712;42.142;24.766;2024-03-22T13:59:38;4.28;;;3.00;;
80233;SDS011;69712;42.142;24.766;2024-03-22T14:02:05;5.93;;;3.60;;
80233;SDS011;69712;42.142;24.766;2024-03-22T14:04:31;7.22;;;3.83;;
80233;SDS011;69712;42.142;24.766;2024-03-22T14:06:57;7.30;;;3.40;;
80233;SDS011;69712;42.142;24.766;2024-03-22T14:09:23;7.32;;;3.10;;
80233;SDS011;69712;42.142;24.766;2024-03-22T14:11:49;4.97;;;3.10;;
80233;SDS011;69712;42.142;24.766;2024-03-22T14:14:14;5.80;;;3.58;;
80233;SDS011;69712;42.142;24.766;2024-03-22T14:16:40;4.75;;;3.10;;
80233;SDS011;69712;42.142;24.766;2024-03-22T14:19:07;5.38;;;3.30;;
80233;SDS011;69712;42.142;24.766;2024-03-22T14:21:34;3.75;;;3.20;;